SBPG/PNG METAR and TAF weather

Enter ICAO airport designator
Station Type Date Time Source
SBPG METAR 2020/06/27 15:00 UTC NOAA

SBPG 271500Z 10005KT 5000 -DZ BR BKN005 BKN020 12/11 Q1018


Station Type Date Time Source
SBPG Decoded METAR 2020/06/27 15:00 UTC NOAA

Paranagua, Brazil (SBPG) 25-31S 048-31W
Jun 27, 2020 - 11:00 AM EDT / 2020.06.27 1500 UTC
Wind: from the E (100 degrees) at 6 MPH (5 KT):0
Visibility: 3 mile(s):0
Sky conditions: mostly cloudy
Weather: light drizzle; mist
Temperature: 53 F (12 C)
Dew Point: 51 F (11 C)
Relative Humidity: 93%
Pressure (altimeter): 30.06 in. Hg (1018 hPa)
ob: SBPG 271500Z 10005KT 5000 -DZ BR BKN005 BKN020 12/11 Q1018
cycle: 15

Station Type Date Time Source
SBPG TAF UTC NOAA

Error!

Example: see airport list